createdAt,value
2018-11-06T00:00:13.624Z,30.23
2018-11-06T00:02:42.552Z,29.57
2018-11-06T00:05:13.469Z,30.47
2018-11-06T00:07:42.893Z,30.10
2018-11-06T00:10:11.889Z,30.00
2018-11-06T00:12:41.052Z,30.60
2018-11-06T00:15:10.144Z,30.87
2018-11-06T00:17:39.344Z,30.87
2018-11-06T00:20:11.297Z,30.23
2018-11-06T00:22:40.032Z,29.67
2018-11-06T00:25:10.210Z,29.63
2018-11-06T00:27:39.519Z,29.10
2018-11-06T00:30:10.039Z,29.57
2018-11-06T00:32:39.545Z,28.83
2018-11-06T00:35:10.155Z,31.20
2018-11-06T00:37:39.137Z,30.37
2018-11-06T00:40:08.072Z,31.13
2018-11-06T00:42:37.016Z,31.77
2018-11-06T00:45:07.549Z,30.57
2018-11-06T00:47:36.396Z,30.63
2018-11-06T00:50:06.046Z,31.23
2018-11-06T00:52:34.800Z,29.37
2018-11-06T00:55:03.652Z,29.77
2018-11-06T00:57:32.374Z,31.57
2018-11-06T01:00:01.128Z,32.03
2018-11-06T01:02:29.911Z,31.00
2018-11-06T01:04:58.717Z,31.30
2018-11-06T01:07:28.376Z,30.03
2018-11-06T01:09:57.256Z,31.37
2018-11-06T01:12:26.139Z,30.10
2018-11-06T01:14:55.032Z,31.20
2018-11-06T01:17:23.745Z,30.00
2018-11-06T01:19:52.452Z,30.87
2018-11-06T01:22:21.282Z,30.10
2018-11-06T01:24:49.999Z,30.07
2018-11-06T01:27:18.910Z,29.97
2018-11-06T01:29:47.632Z,29.83
2018-11-06T01:32:16.424Z,30.27
2018-11-06T01:34:45.209Z,29.67
2018-11-06T01:37:14.028Z,28.73
2018-11-06T01:39:42.737Z,29.27
2018-11-06T01:42:11.500Z,28.67
2018-11-06T01:44:40.235Z,30.13
2018-11-06T01:47:09.034Z,29.83
2018-11-06T01:49:37.727Z,28.17
2018-11-06T01:52:06.436Z,28.57
2018-11-06T01:54:35.195Z,28.97
2018-11-06T01:57:03.996Z,27.60
2018-11-06T01:59:32.773Z,27.80
2018-11-06T02:02:01.517Z,27.40
2018-11-06T02:04:30.432Z,28.23
2018-11-06T02:06:59.168Z,28.60
2018-11-06T02:09:27.922Z,27.60
2018-11-06T02:11:56.636Z,27.83
2018-11-06T02:14:25.373Z,28.00
2018-11-06T02:16:54.257Z,27.37
2018-11-06T02:19:23.028Z,28.27
2018-11-06T02:21:51.753Z,27.17
2018-11-06T02:24:20.473Z,27.47
2018-11-06T02:26:49.235Z,26.83
2018-11-06T02:29:18.040Z,27.57
2018-11-06T02:31:46.759Z,26.47
2018-11-06T02:34:15.493Z,27.03
2018-11-06T02:36:44.229Z,26.03
2018-11-06T02:39:12.945Z,26.77
2018-11-06T02:44:16.863Z,26.20
2018-11-06T02:46:45.590Z,26.10
2018-11-06T02:49:14.311Z,26.10
2018-11-06T02:51:43.034Z,25.23
2018-11-06T02:54:11.745Z,26.17
2018-11-06T02:56:40.502Z,25.40
2018-11-06T02:59:09.186Z,25.87
2018-11-06T03:01:38.012Z,24.40
2018-11-06T03:04:07.030Z,24.87
2018-11-06T03:06:35.777Z,25.77
2018-11-06T03:09:06.462Z,25.23
2018-11-06T03:11:35.166Z,25.13
2018-11-06T03:14:03.999Z,24.90
2018-11-06T03:16:32.899Z,24.13
2018-11-06T03:19:01.722Z,24.37
2018-11-06T03:21:30.461Z,24.13
2018-11-06T03:23:59.239Z,25.37
2018-11-06T03:26:28.103Z,24.57
2018-11-06T03:28:56.827Z,24.13
2018-11-06T03:31:25.574Z,25.63
2018-11-06T03:33:54.369Z,25.70
2018-11-06T03:36:23.096Z,25.27
2018-11-06T03:38:51.905Z,25.30
2018-11-06T03:41:20.668Z,25.87
2018-11-06T03:43:49.456Z,24.83
2018-11-06T03:46:18.245Z,24.30
2018-11-06T03:48:46.958Z,25.57
2018-11-06T03:51:15.662Z,25.70
2018-11-06T03:53:44.963Z,24.90
2018-11-06T03:56:13.822Z,24.73
2018-11-06T03:58:42.687Z,24.97
2018-11-06T04:01:11.660Z,25.53
2018-11-06T04:03:40.407Z,25.33
2018-11-06T04:06:09.223Z,24.47
2018-11-06T04:08:38.058Z,24.93
2018-11-06T04:11:06.821Z,25.50
2018-11-06T04:13:35.611Z,25.37
2018-11-06T04:16:04.448Z,24.43
2018-11-06T04:18:33.265Z,24.97
2018-11-06T04:21:02.375Z,24.60
2018-11-06T04:23:31.229Z,24.90
2018-11-06T04:26:00.079Z,25.43
2018-11-06T04:28:28.828Z,24.97
2018-11-06T04:30:57.585Z,25.87
2018-11-06T04:36:04.391Z,24.27
2018-11-06T04:38:33.205Z,25.50
2018-11-06T04:41:01.978Z,25.70
2018-11-06T04:43:30.686Z,23.90
2018-11-06T04:45:59.423Z,24.23
2018-11-06T04:48:28.241Z,23.33
2018-11-06T04:50:57.000Z,23.43
2018-11-06T04:53:25.730Z,23.90
2018-11-06T04:55:54.537Z,24.30
2018-11-06T04:58:23.422Z,23.63
2018-11-06T05:00:52.128Z,23.50
2018-11-06T05:03:20.889Z,24.77
2018-11-06T05:05:49.621Z,23.93
2018-11-06T05:08:18.934Z,24.23
2018-11-06T05:10:47.675Z,23.73
2018-11-06T05:13:16.422Z,24.83
2018-11-06T05:15:45.364Z,23.43
2018-11-06T05:18:14.189Z,24.17
2018-11-06T05:20:42.916Z,24.00
2018-11-06T05:23:11.734Z,23.10
2018-11-06T05:25:40.592Z,23.50
2018-11-06T05:28:09.280Z,23.47
2018-11-06T05:30:45.463Z,23.70
2018-11-06T05:33:14.401Z,23.73
2018-11-06T05:35:43.216Z,23.70
2018-11-06T05:38:12.158Z,22.17
2018-11-06T05:40:56.617Z,23.17
2018-11-06T05:43:25.467Z,22.57
2018-11-06T05:45:54.563Z,23.53
2018-11-06T05:48:23.369Z,23.50
2018-11-06T05:50:52.043Z,23.17
2018-11-06T05:53:21.614Z,23.30
2018-11-06T05:55:50.476Z,22.30
2018-11-06T05:58:19.287Z,23.07
2018-11-06T06:00:48.448Z,23.30
2018-11-06T06:03:17.272Z,22.73
2018-11-06T06:05:46.153Z,22.40
2018-11-06T06:08:18.223Z,22.63
2018-11-06T06:10:47.066Z,22.70
2018-11-06T06:13:15.873Z,22.17
2018-11-06T06:15:44.633Z,22.07
2018-11-06T06:18:13.475Z,21.93
2018-11-06T06:20:43.351Z,23.50
2018-11-06T06:23:12.327Z,22.50
2018-11-06T06:25:41.209Z,22.70
2018-11-06T06:28:10.316Z,22.00
2018-11-06T06:30:39.500Z,22.17
2018-11-06T06:33:08.452Z,21.67
2018-11-06T06:35:37.342Z,20.43
2018-11-06T06:38:06.377Z,23.07
2018-11-06T06:40:35.494Z,21.10
2018-11-06T06:43:04.873Z,20.17
2018-11-06T06:45:33.778Z,21.83
2018-11-06T06:48:02.664Z,22.13
2018-11-06T06:50:31.500Z,20.87
2018-11-06T06:53:00.904Z,20.23
2018-11-06T06:55:29.745Z,21.00
2018-11-06T06:57:58.602Z,20.57
2018-11-06T07:00:27.466Z,20.60
2018-11-06T07:02:56.386Z,20.10
2018-11-06T07:05:25.205Z,19.70
2018-11-06T07:07:54.011Z,19.67
2018-11-06T07:10:23.274Z,19.70
2018-11-06T07:12:52.117Z,19.37
2018-11-06T07:15:22.007Z,19.53
2018-11-06T07:17:51.816Z,19.60
2018-11-06T07:20:22.161Z,19.87
2018-11-06T07:22:51.512Z,19.37
2018-11-06T07:25:20.706Z,18.70
2018-11-06T07:27:49.868Z,19.50
2018-11-06T07:30:20.054Z,18.73
2018-11-06T07:32:48.912Z,18.97
2018-11-06T07:35:18.432Z,18.53
2018-11-06T07:37:48.134Z,19.23
2018-11-06T07:40:18.448Z,19.03
2018-11-06T07:42:47.515Z,19.83
2018-11-06T07:45:18.045Z,18.80
2018-11-06T07:47:46.865Z,19.60
2018-11-06T07:50:15.969Z,18.80
2018-11-06T07:52:45.076Z,18.77
2018-11-06T07:55:17.526Z,19.07
2018-11-06T07:57:46.654Z,20.17
2018-11-06T08:00:23.128Z,18.60
2018-11-06T08:02:52.181Z,20.17
2018-11-06T08:05:21.117Z,18.53
2018-11-06T08:07:50.918Z,18.57
2018-11-06T08:10:19.710Z,18.80
2018-11-06T08:12:49.762Z,19.00
2018-11-06T08:15:19.368Z,18.57
2018-11-06T08:17:48.558Z,19.27
2018-11-06T08:20:17.422Z,19.63
2018-11-06T08:22:46.251Z,19.00
2018-11-06T08:25:15.902Z,18.43
2018-11-06T08:27:45.267Z,19.00
2018-11-06T08:30:14.428Z,18.97
2018-11-06T08:32:43.692Z,18.60
2018-11-06T08:35:13.861Z,18.87
2018-11-06T08:37:43.531Z,18.57
2018-11-06T08:40:14.320Z,19.50
2018-11-06T08:42:43.273Z,19.57
2018-11-06T08:45:13.317Z,19.60
2018-11-06T08:47:43.047Z,19.63
2018-11-06T08:50:13.116Z,19.60
2018-11-06T08:52:42.075Z,19.40
2018-11-06T08:55:12.092Z,19.07
2018-11-06T08:57:41.460Z,18.80
2018-11-06T09:00:13.987Z,19.07
2018-11-06T09:02:43.810Z,19.27
2018-11-06T09:05:14.672Z,18.40
2018-11-06T09:07:43.691Z,19.87
2018-11-06T09:10:13.608Z,19.53
2018-11-06T09:12:43.362Z,19.07
2018-11-06T09:15:13.725Z,19.37
2018-11-06T09:17:42.587Z,19.40
2018-11-06T09:20:13.625Z,19.70
2018-11-06T09:25:21.164Z,19.10
2018-11-06T09:27:49.924Z,20.63
2018-11-06T09:30:19.445Z,18.87
2018-11-06T09:32:49.032Z,18.90
2018-11-06T09:35:17.826Z,20.37
2018-11-06T09:37:46.614Z,20.40
2018-11-06T09:40:16.973Z,20.97
2018-11-06T09:42:45.788Z,19.47
2018-11-06T09:45:14.796Z,19.73
2018-11-06T09:47:43.564Z,20.30
2018-11-06T09:50:14.070Z,19.03
2018-11-06T09:52:43.356Z,20.43
2018-11-06T09:55:12.619Z,20.37
2018-11-06T09:57:41.386Z,20.60
2018-11-06T10:00:12.828Z,20.50
2018-11-06T10:02:41.647Z,20.53
2018-11-06T10:05:11.502Z,19.93
2018-11-06T10:07:40.364Z,20.50
2018-11-06T10:10:10.769Z,20.70
2018-11-06T10:12:40.738Z,20.23
2018-11-06T10:15:11.704Z,20.57
2018-11-06T10:17:41.577Z,20.53
2018-11-06T10:20:12.001Z,21.07
2018-11-06T10:22:40.751Z,19.87
2018-11-06T10:25:09.660Z,20.63
2018-11-06T10:27:39.088Z,20.13
2018-11-06T10:30:11.147Z,21.20
2018-11-06T10:32:39.941Z,20.60
2018-11-06T10:35:09.416Z,21.47
2018-11-06T10:37:38.231Z,21.27
2018-11-06T10:40:12.980Z,20.83
2018-11-06T10:42:41.844Z,20.70
2018-11-06T10:45:11.810Z,20.40
2018-11-06T10:47:40.721Z,21.60
2018-11-06T10:50:10.940Z,19.73
2018-11-06T10:52:39.812Z,20.27
2018-11-06T10:55:09.070Z,21.30
2018-11-06T10:57:38.960Z,21.63
2018-11-06T11:00:17.868Z,21.77
2018-11-06T11:02:52.277Z,20.93
2018-11-06T11:05:22.851Z,21.37
2018-11-06T11:07:51.680Z,21.53
2018-11-06T11:10:20.576Z,21.30
2018-11-06T11:12:49.562Z,20.97
2018-11-06T11:15:18.304Z,21.03
2018-11-06T11:17:47.072Z,21.53
2018-11-06T11:20:15.938Z,21.17
2018-11-06T11:22:44.923Z,22.47
2018-11-06T11:25:15.008Z,22.77
2018-11-06T11:27:44.470Z,22.47
2018-11-06T11:30:14.338Z,23.17
2018-11-06T11:32:44.626Z,20.63
2018-11-06T11:35:13.996Z,21.80
2018-11-06T11:37:42.970Z,21.47
2018-11-06T11:40:13.159Z,22.60
2018-11-06T11:42:42.244Z,22.87
2018-11-06T11:45:12.342Z,24.00
2018-11-06T11:47:41.293Z,23.10
2018-11-06T11:50:11.514Z,22.60
2018-11-06T11:52:40.455Z,23.17
2018-11-06T11:55:09.631Z,22.50
2018-11-06T11:57:38.817Z,23.60
2018-11-06T12:00:09.421Z,23.00
2018-11-06T12:02:44.890Z,23.03
2018-11-06T12:05:13.630Z,22.87
2018-11-06T12:07:42.391Z,22.53
2018-11-06T12:10:12.118Z,22.50
2018-11-06T12:12:41.087Z,22.93
2018-11-06T12:15:12.303Z,22.93
2018-11-06T12:17:41.492Z,24.00
2018-11-06T12:20:11.857Z,23.10
2018-11-06T12:22:40.941Z,23.80
2018-11-06T12:25:10.159Z,23.67
2018-11-06T12:27:38.873Z,22.40
2018-11-06T12:30:10.542Z,23.13
2018-11-06T12:32:39.934Z,22.03
2018-11-06T12:35:09.484Z,21.87
2018-11-06T12:37:38.395Z,22.70
2018-11-06T12:40:08.265Z,23.03
2018-11-06T12:42:37.667Z,22.10
2018-11-06T12:45:08.095Z,22.00
2018-11-06T12:47:36.842Z,21.27
2018-11-06T12:50:06.575Z,23.53
2018-11-06T12:52:35.441Z,22.77
2018-11-06T12:55:04.939Z,23.23
2018-11-06T12:57:33.667Z,23.67
2018-11-06T13:00:02.490Z,22.80
2018-11-06T13:02:31.228Z,22.60
2018-11-06T13:04:59.970Z,23.03
2018-11-06T13:07:28.745Z,23.20
2018-11-06T13:09:57.897Z,22.30
2018-11-06T13:12:26.648Z,23.00
2018-11-06T13:14:57.238Z,22.07
2018-11-06T13:17:25.131Z,23.07
2018-11-06T13:19:53.984Z,23.20
2018-11-06T13:22:22.867Z,23.10
2018-11-06T13:24:52.204Z,22.30
2018-11-06T13:27:21.100Z,22.97
2018-11-06T13:29:49.873Z,23.43
2018-11-06T13:32:18.699Z,24.43
2018-11-06T13:34:49.603Z,23.80
2018-11-06T13:37:19.929Z,23.13
2018-11-06T13:42:25.690Z,23.73
2018-11-06T13:44:54.819Z,23.17
2018-11-06T13:47:23.580Z,23.47
2018-11-06T13:49:56.431Z,23.67
2018-11-06T13:52:25.176Z,23.53
2018-11-06T13:54:53.876Z,23.10
2018-11-06T13:57:22.687Z,23.23
2018-11-06T13:59:51.552Z,23.87
2018-11-06T14:02:20.280Z,23.70
2018-11-06T14:04:49.393Z,23.03
2018-11-06T14:07:18.168Z,24.07
2018-11-06T14:09:47.079Z,23.37
2018-11-06T14:12:16.004Z,24.00
2018-11-06T14:14:44.745Z,23.57
2018-11-06T14:17:14.472Z,23.03
2018-11-06T14:19:43.251Z,23.30
2018-11-06T14:22:13.164Z,23.07
2018-11-06T14:24:41.999Z,23.30
2018-11-06T14:27:13.801Z,23.33
2018-11-06T14:29:42.897Z,23.57
2018-11-06T14:32:13.138Z,23.50
2018-11-06T14:34:43.378Z,23.97
2018-11-06T14:37:12.167Z,23.23
2018-11-06T14:39:41.152Z,24.13
2018-11-06T14:42:09.988Z,24.50
2018-11-06T14:44:38.757Z,25.13
2018-11-06T14:47:07.523Z,24.50
2018-11-06T14:49:36.397Z,24.80
2018-11-06T14:52:05.619Z,24.10
2018-11-06T14:54:34.572Z,24.13
2018-11-06T14:57:03.330Z,23.27
2018-11-06T14:59:32.351Z,23.30
2018-11-06T15:02:01.113Z,23.77
2018-11-06T15:04:30.258Z,23.63
2018-11-06T15:06:59.128Z,22.93
2018-11-06T15:09:29.231Z,25.40
2018-11-06T15:12:01.555Z,25.53
2018-11-06T15:14:30.660Z,26.63
2018-11-06T15:16:59.469Z,26.23
2018-11-06T15:19:30.032Z,24.70
2018-11-06T15:21:59.007Z,24.93
2018-11-06T15:24:29.248Z,25.30
2018-11-06T15:26:58.626Z,24.93
2018-11-06T15:29:28.757Z,27.33
2018-11-06T15:31:57.674Z,25.23
2018-11-06T15:34:27.586Z,26.00
2018-11-06T15:36:56.479Z,24.13
2018-11-06T15:39:25.683Z,26.40
2018-11-06T15:41:54.961Z,26.50
2018-11-06T15:44:23.625Z,26.90
2018-11-06T15:46:56.641Z,29.57
2018-11-06T15:49:33.171Z,29.03
2018-11-06T15:52:02.271Z,27.47
2018-11-06T15:54:35.677Z,27.10
2018-11-06T15:57:06.134Z,25.00
2018-11-06T15:59:35.073Z,26.63
2018-11-06T16:02:03.881Z,25.37
2018-11-06T16:04:32.855Z,27.80
2018-11-06T16:07:01.990Z,29.13
2018-11-06T16:09:33.311Z,31.30
2018-11-06T16:12:02.437Z,28.43
2018-11-06T16:14:36.316Z,27.20
2018-11-06T16:17:05.600Z,29.13
2018-11-06T16:19:34.685Z,27.03
2018-11-06T16:22:03.753Z,26.43
2018-11-06T16:24:32.953Z,26.93
2018-11-06T16:27:01.965Z,26.73
2018-11-06T16:29:31.252Z,26.17
2018-11-06T16:32:01.531Z,24.23
2018-11-06T16:34:32.746Z,25.13
2018-11-06T16:37:01.931Z,26.67
2018-11-06T16:42:09.484Z,28.20
2018-11-06T16:44:38.289Z,26.50
2018-11-06T16:47:10.761Z,27.57
2018-11-06T16:49:40.033Z,26.00
2018-11-06T16:52:09.735Z,27.40
2018-11-06T16:54:38.635Z,26.53
2018-11-06T16:57:07.553Z,25.83
2018-11-06T16:59:37.874Z,26.87
2018-11-06T17:02:06.582Z,27.87
2018-11-06T17:04:35.433Z,27.00
2018-11-06T17:07:05.528Z,27.60
2018-11-06T17:09:34.909Z,28.40
2018-11-06T17:12:06.401Z,27.07
2018-11-06T17:14:36.791Z,28.63
2018-11-06T17:17:08.099Z,33.33
2018-11-06T17:19:36.950Z,31.27
2018-11-06T17:22:05.749Z,40.43
2018-11-06T17:24:34.501Z,37.57
2018-11-06T17:27:03.413Z,30.63
2018-11-06T17:29:32.136Z,27.17
2018-11-06T17:32:01.104Z,29.63
2018-11-06T17:34:31.196Z,28.73
2018-11-06T17:37:10.605Z,30.23
2018-11-06T17:39:54.336Z,30.70
2018-11-06T17:42:30.793Z,28.97
2018-11-06T17:45:07.216Z,28.10
2018-11-06T17:47:44.676Z,28.43
2018-11-06T17:50:25.034Z,28.93
2018-11-06T17:52:57.605Z,29.10
2018-11-06T17:55:26.517Z,30.03
2018-11-06T17:57:55.291Z,30.63
2018-11-06T18:00:24.395Z,31.67
2018-11-06T18:02:53.298Z,30.17
2018-11-06T18:05:23.606Z,28.40
2018-11-06T18:07:52.367Z,32.40
2018-11-06T18:10:21.650Z,29.53
2018-11-06T18:12:55.208Z,29.17
2018-11-06T18:15:24.324Z,30.53
2018-11-06T18:17:58.036Z,30.40
2018-11-06T18:20:28.054Z,27.27
2018-11-06T18:23:02.241Z,28.93
2018-11-06T18:25:47.915Z,30.47
2018-11-06T18:28:19.902Z,29.37
2018-11-06T18:30:54.093Z,28.87
2018-11-06T18:33:25.024Z,28.67
2018-11-06T18:35:53.920Z,31.07
2018-11-06T18:38:23.299Z,30.63
2018-11-06T18:40:52.052Z,31.47
2018-11-06T18:43:21.318Z,35.77
2018-11-06T18:45:51.496Z,38.13
2018-11-06T18:48:23.758Z,36.00
2018-11-06T18:50:53.560Z,35.73
2018-11-06T18:53:27.936Z,33.03
2018-11-06T18:55:57.638Z,29.63
2018-11-06T18:58:35.040Z,31.37
2018-11-06T19:01:10.561Z,31.33
2018-11-06T19:03:42.481Z,29.97
2018-11-06T19:06:20.654Z,28.90
2018-11-06T19:08:54.041Z,28.63
2018-11-06T19:11:25.577Z,31.60
2018-11-06T19:13:58.863Z,30.33
2018-11-06T19:16:29.921Z,31.50
2018-11-06T19:18:58.961Z,32.43
2018-11-06T19:21:28.954Z,31.63
2018-11-06T19:23:57.821Z,36.93
2018-11-06T19:26:26.831Z,35.63
2018-11-06T19:28:55.760Z,36.57
2018-11-06T19:31:24.524Z,35.03
2018-11-06T19:33:53.448Z,39.27
2018-11-06T19:36:22.327Z,44.87
2018-11-06T19:38:51.050Z,48.43
2018-11-06T19:41:19.767Z,43.60
2018-11-06T19:43:48.957Z,33.47
2018-11-06T19:46:18.809Z,31.97
2018-11-06T19:48:47.894Z,32.87
2018-11-06T19:51:16.771Z,33.03
2018-11-06T19:53:45.803Z,32.90
2018-11-06T19:56:14.433Z,31.23
2018-11-06T19:58:43.322Z,30.23
2018-11-06T20:01:12.447Z,30.50
2018-11-06T20:03:41.278Z,30.23
2018-11-06T20:06:11.217Z,30.63
2018-11-06T20:08:40.409Z,29.27
2018-11-06T20:11:09.767Z,31.90
2018-11-06T20:16:17.764Z,28.97
2018-11-06T20:18:46.606Z,30.43
2018-11-06T20:21:15.373Z,29.80
2018-11-06T20:23:44.228Z,43.57
2018-11-06T20:26:12.971Z,55.63
2018-11-06T20:28:41.811Z,37.57
2018-11-06T20:31:11.492Z,37.87
2018-11-06T20:33:41.146Z,33.87
2018-11-06T20:36:10.599Z,31.53
2018-11-06T20:38:40.071Z,31.07
2018-11-06T20:41:09.037Z,31.13
2018-11-06T20:43:38.430Z,31.03
2018-11-06T20:46:07.662Z,32.27
2018-11-06T20:48:38.235Z,31.63
2018-11-06T20:51:07.154Z,31.83
2018-11-06T20:53:36.445Z,31.70
2018-11-06T20:56:06.125Z,32.77
2018-11-06T20:58:35.403Z,32.43
2018-11-06T21:01:04.711Z,32.87
2018-11-06T21:03:33.588Z,31.60
2018-11-06T21:06:03.048Z,32.30
2018-11-06T21:08:31.846Z,32.63
2018-11-06T21:11:01.965Z,31.67
2018-11-06T21:13:30.960Z,31.53
2018-11-06T21:16:00.013Z,31.13
2018-11-06T21:18:29.113Z,30.37
2018-11-06T21:20:59.712Z,29.97
2018-11-06T21:23:28.812Z,29.20
2018-11-06T21:25:57.832Z,31.23
2018-11-06T21:28:26.551Z,31.03
2018-11-06T21:30:55.294Z,32.27
2018-11-06T21:33:24.095Z,30.47
2018-11-06T21:35:52.952Z,31.53
2018-11-06T21:38:22.155Z,30.40
2018-11-06T21:40:51.027Z,31.27
2018-11-06T21:43:19.776Z,31.40
2018-11-06T21:45:48.602Z,32.17
2018-11-06T21:48:17.570Z,30.13
2018-11-06T21:50:46.791Z,29.00
2018-11-06T21:53:15.665Z,30.27
2018-11-06T21:55:44.999Z,31.73
2018-11-06T21:58:14.869Z,29.93
2018-11-06T22:00:43.957Z,29.00
2018-11-06T22:03:13.073Z,31.90
2018-11-06T22:05:41.930Z,28.67
2018-11-06T22:08:10.755Z,29.80
2018-11-06T22:10:39.705Z,29.93
2018-11-06T22:13:08.686Z,30.00
2018-11-06T22:15:37.450Z,33.10
2018-11-06T22:18:06.514Z,28.97
2018-11-06T22:20:35.785Z,30.13
2018-11-06T22:23:05.245Z,29.40
2018-11-06T22:25:33.991Z,29.40
2018-11-06T22:28:02.832Z,28.40
2018-11-06T22:30:31.777Z,26.33
2018-11-06T22:33:00.563Z,25.83
2018-11-06T22:35:29.669Z,26.97
2018-11-06T22:37:58.545Z,27.90
2018-11-06T22:40:27.379Z,27.73
2018-11-06T22:42:56.548Z,26.93
2018-11-06T22:45:25.508Z,27.20
2018-11-06T22:47:54.326Z,27.53
2018-11-06T22:50:23.449Z,27.20
2018-11-06T22:52:52.440Z,27.47
2018-11-06T22:55:21.439Z,30.47
2018-11-06T22:57:50.222Z,29.37
2018-11-06T23:00:24.646Z,29.67
2018-11-06T23:02:53.508Z,29.93
2018-11-06T23:05:22.290Z,28.13
2018-11-06T23:07:56.643Z,29.10
2018-11-06T23:10:25.477Z,28.93
2018-11-06T23:12:54.190Z,28.57
2018-11-06T23:15:23.085Z,28.77
2018-11-06T23:17:51.988Z,31.13
2018-11-06T23:20:20.855Z,29.17
2018-11-06T23:22:50.245Z,30.60
2018-11-06T23:25:19.047Z,29.60
2018-11-06T23:27:47.833Z,31.17
2018-11-06T23:30:16.707Z,30.40
2018-11-06T23:32:45.493Z,30.13
2018-11-06T23:35:14.231Z,31.77
2018-11-06T23:37:43.089Z,31.17
2018-11-06T23:40:12.064Z,31.37
2018-11-06T23:42:41.478Z,32.10
2018-11-06T23:45:10.509Z,31.07
2018-11-06T23:47:40.195Z,33.60
2018-11-06T23:50:09.563Z,33.73
2018-11-06T23:55:19.077Z,33.70
2018-11-06T23:57:48.188Z,32.80
